Nearby METAR Reports

 

LBGO - Gorna Orechovist, Bulgaria
Distance from station: NE 57km
Updated: 20/06/2019 12:00
Clear
Clear
 Wind from varies
Wind: varies 7 km/h
Temperature: 28°C
Heat Index: 29°C
Dew Point: 18°C
Humidity: 55%
Barometer: 1013 hPa
Clouds: Clear
Visibility: 10 km
2019/06/20 09:00 LBGO 200900Z AUTO VRB04KT 9999 NCD 28/18 Q1013 NOSIG